Ana Sayfa
METAR-TAF:

METAR-TAF

Havaalanları :

Mid-Way Regional Airport

Midlothian / Waxahachie, Teksas, Amerika Birleşik Devletleri

Enlem: 32-27-21N, Boylam: 096-54-44W, yükseklik: 217 m

Güncel hava durumu gözlemi

Rapor saat 21:15 UTC de 23 dakika önce yapıldı.
Rüzgar doğu/güneydoğudan 5 kt
Sıcaklık 34°C
Nem 44%
Basınç 1013 hPa
Görüş mesafesi: 16.1 km
Açık gökyüzü

METAR: KJWY 172115Z AUTO 12005KT 10SM CLR 34/20 A2992 RMK AO2 T03390200

Saat: 16:38 (21:38 UTC)


TAF: eksik

4.000'den fazla havaalanı için hava durumu gözlemleri ve tahminleri (METAR ve TAF raporları).

Kullanılabilir istasyonlar harita üzerinde sarı ve kırmızı noktalarla gösterilir.

İstasyonun adını görmek için fareyi noktanın üzerinde gezdirin.

Sonrasında hava gözlem ve tahminlerini görmek için tıklayın.

Haritayı değiştirmek için: yaklaştırmak için siyah artı işaretli yeşil düğmeye ve uzaklaştırmak için de eksi işaretli düğmeye hızla tıklayın; bitişik haritalar için yeşil okları kullanın.


METAR-TAF: